Time;durP1;ratioP1;P1;durP2;ratioP2;P2;SDS_P1;SDS_P2;PMS_P1;PMS_P2;Temp;Humidity;BMP_temperature;BMP_pressure;BME280_temperature;BME280_humidity;BME280_pressure;Samples;Min_cycle;Max_cycle;Signal;HPM_P1;HPM_P2
2023/01/11 00:01:19;;;;;;;4.00;1.98;;;;;;;8.07;100.00;100630.97;5095303;28;20048;-89
2023/01/11 00:03:45;;;;;;;6.75;2.40;;;;;;;8.06;100.00;100627.50;5094915;28;20020;-89
2023/01/11 00:06:11;;;;;;;4.83;2.40;;;;;;;8.10;100.00;100635.81;5093910;28;20021;-89
2023/01/11 00:08:36;;;;;;;4.82;2.00;;;;;;;8.09;100.00;100639.53;5094824;28;20033;-89
2023/01/11 00:11:03;;;;;;;4.63;2.30;;;;;;;8.06;100.00;100618.66;5086102;28;20488;-91
2023/01/11 00:13:29;;;;;;;4.40;2.10;;;;;;;8.10;100.00;100625.16;5089433;28;20043;-90
2023/01/11 00:15:55;;;;;;;7.47;2.20;;;;;;;8.13;100.00;100598.75;5094409;28;20031;-91
2023/01/11 00:18:20;;;;;;;4.60;1.83;;;;;;;8.22;100.00;100612.47;5091610;28;20044;-89
2023/01/11 00:20:46;;;;;;;6.20;1.80;;;;;;;8.29;100.00;100623.81;5093369;28;20083;-90
2023/01/11 00:23:11;;;;;;;4.77;1.80;;;;;;;8.28;100.00;100616.06;5091124;28;20051;-90
2023/01/11 00:25:38;;;;;;;5.25;1.60;;;;;;;8.23;100.00;100599.97;5089996;28;20030;-89
2023/01/11 00:28:04;;;;;;;4.68;1.60;;;;;;;8.27;100.00;100609.88;5085372;28;20483;-90
2023/01/11 00:30:30;;;;;;;2.50;1.33;;;;;;;8.30;100.00;100609.41;5087417;28;20025;-89
2023/01/11 00:32:56;;;;;;;6.33;1.70;;;;;;;8.37;100.00;100616.44;5088905;28;20017;-90
2023/01/11 00:35:22;;;;;;;2.95;1.50;;;;;;;8.40;100.00;100615.94;5092571;28;20021;-90
2023/01/11 00:37:47;;;;;;;5.27;1.70;;;;;;;8.36;100.00;100596.13;5093732;28;20031;-90
2023/01/11 00:40:13;;;;;;;2.27;1.40;;;;;;;8.27;100.00;100587.75;5088904;28;20474;-90
2023/01/11 00:48:06;;;;;;;2.97;1.30;;;;;;;8.41;100.00;100601.50;5070401;28;20333;-90
2023/01/11 00:50:37;;;;;;;5.25;1.40;;;;;;;8.35;100.00;100597.97;5069433;28;20020;-90
2023/01/11 00:53:04;;;;;;;4.60;1.60;;;;;;;8.35;100.00;100597.97;5071316;28;20482;-90
2023/01/11 00:55:32;;;;;;;1.50;1.23;;;;;;;8.33;100.00;100594.75;5071188;28;20021;-90
2023/01/11 00:57:58;;;;;;;3.53;1.42;;;;;;;8.31;100.00;100597.66;5070872;28;20056;-90
2023/01/11 01:00:24;;;;;;;4.00;1.80;;;;;;;8.28;100.00;100590.16;5068722;28;20127;-90
2023/01/11 01:05:25;;;;;;;5.72;1.77;;;;;;;8.31;100.00;100589.66;5823622;22;20049;-90
2023/01/11 01:07:50;;;;;;;3.67;1.80;;;;;;;8.31;100.00;100591.50;5029303;28;20018;-89
2023/01/11 01:10:17;;;;;;;3.90;1.60;;;;;;;8.18;100.00;100568.69;5029968;28;20116;-90
2023/01/11 01:15:26;;;;;;;3.03;2.00;;;;;;;8.29;100.00;100583.75;5030855;28;20095;-89
2023/01/11 01:17:54;;;;;;;3.40;2.00;;;;;;;8.27;100.00;100587.75;5012127;28;20029;-90
2023/01/11 01:20:20;;;;;;;4.70;1.75;;;;;;;8.24;100.00;100583.69;5028942;28;20029;-90
2023/01/11 01:22:45;;;;;;;5.75;2.20;;;;;;;8.24;100.00;100583.69;5030933;28;20033;-90
2023/01/11 01:25:10;;;;;;;2.53;2.13;;;;;;;8.15;100.00;100585.97;5031359;28;20068;-89
2023/01/11 01:27:36;;;;;;;6.40;2.40;;;;;;;8.24;100.00;100578.34;5033089;28;20091;-90
2023/01/11 01:30:01;;;;;;;5.40;2.50;;;;;;;8.32;100.00;100590.44;5033502;28;20443;-90
2023/01/11 01:32:27;;;;;;;3.37;2.50;;;;;;;8.34;100.00;100594.50;5036706;28;20652;-90
2023/01/11 01:34:52;;;;;;;4.37;2.63;;;;;;;8.34;100.00;100581.16;5037012;28;20475;-91
2023/01/11 01:37:17;;;;;;;6.40;2.43;;;;;;;8.37;100.00;100595.88;5034507;28;20038;-90
2023/01/11 01:39:43;;;;;;;5.40;2.70;;;;;;;8.27;100.00;100569.84;5034929;28;20037;-91
2023/01/11 01:42:17;;;;;;;5.35;2.80;;;;;;;8.45;100.00;100594.63;5051754;28;20122;-90
2023/01/11 01:44:56;;;;;;;4.80;3.10;;;;;;;8.45;100.00;100595.44;5041710;28;20029;-89
2023/01/11 01:47:37;;;;;;;6.07;3.85;;;;;;;8.42;100.00;100589.78;5047112;28;20056;-90
2023/01/11 01:50:11;;;;;;;5.00;3.30;;;;;;;8.46;100.00;100575.69;5044101;28;20040;-89
2023/01/11 01:52:37;;;;;;;7.25;2.90;;;;;;;8.44;100.00;100582.31;5030865;28;20029;-90
2023/01/11 01:55:09;;;;;;;3.97;2.92;;;;;;;8.56;100.00;100595.56;5033975;28;20078;-90
2023/01/11 01:57:38;;;;;;;6.15;3.53;;;;;;;8.51;100.00;100571.47;5024167;28;20036;-89
2023/01/11 02:00:07;;;;;;;6.03;3.20;;;;;;;8.60;100.00;100589.47;5031446;28;20033;-90
2023/01/11 02:02:35;;;;;;;6.95;3.40;;;;;;;8.62;100.00;100582.03;5032430;28;20548;-91
2023/01/11 02:05:01;;;;;;;8.30;3.20;;;;;;;8.67;100.00;100583.16;5033569;28;20030;-90
2023/01/11 02:07:31;;;;;;;5.50;2.83;;;;;;;8.65;100.00;100586.09;5031988;28;20084;-90
2023/01/11 02:10:17;;;;;;;7.53;3.30;;;;;;;8.70;100.00;100580.78;5031016;28;20029;-91
2023/01/11 02:13:04;;;;;;;5.65;4.13;;;;;;;8.74;100.00;100581.09;5014574;28;20061;-90
2023/01/11 02:15:30;;;;;;;6.35;3.20;;;;;;;8.79;100.00;100581.94;5031027;28;20420;-90
2023/01/11 02:17:56;;;;;;;8.43;3.60;;;;;;;8.75;100.00;100569.34;5018575;28;20022;-90
2023/01/11 02:21:07;;;;;;;4.85;2.97;;;;;;;8.83;100.00;100578.78;5045817;28;20056;-89
2023/01/11 02:24:04;;;;;;;3.72;2.70;;;;;;;8.85;100.00;100584.69;5037797;28;20037;-89
2023/01/11 02:27:05;;;;;;;9.00;3.27;;;;;;;8.87;100.00;100577.19;5034748;28;20036;-89
2023/01/11 02:30:16;;;;;;;5.60;2.70;;;;;;;8.87;100.00;100574.53;5026191;28;20320;-89
2023/01/11 02:32:47;;;;;;;4.10;2.25;;;;;;;8.74;100.00;100543.69;4975567;28;20037;-90
2023/01/11 02:35:25;;;;;;;8.93;2.50;;;;;;;8.85;100.00;100572.13;4994494;28;20019;-89
2023/01/11 02:37:56;;;;;;;7.00;2.53;;;;;;;8.98;100.00;100567.41;5029233;28;20108;-88
2023/01/11 02:41:02;;;;;;;5.53;2.08;;;;;;;8.97;100.00;100569.28;5050783;28;20658;-89
2023/01/11 02:46:31;;;;;;;4.90;2.10;;;;;;;8.96;100.00;100556.16;5034145;28;20044;-89
2023/01/11 02:49:12;;;;;;;3.85;1.98;;;;;;;9.03;100.00;100560.28;5031837;28;20142;-89
2023/01/11 03:37:59;;;;;;;1.87;1.20;;;;;;;9.08;100.00;100522.09;5196647;22;20304;-90
2023/01/11 03:40:30;;;;;;;2.40;1.10;;;;;;;9.21;100.00;100547.59;5055442;28;20021;-90
2023/01/11 03:43:10;;;;;;;2.15;1.35;;;;;;;9.30;100.00;100558.63;5048541;28;20059;-89
2023/01/11 03:45:47;;;;;;;2.75;1.40;;;;;;;9.26;100.00;100544.13;5041560;28;20049;-89
2023/01/11 03:48:18;;;;;;;6.72;1.10;;;;;;;9.30;100.00;100555.94;5040267;28;20034;-88
2023/01/11 03:50:46;;;;;;;5.20;1.13;;;;;;;9.29;100.00;100547.09;5031593;28;20100;-89
2023/01/11 03:53:14;;;;;;;3.90;1.10;;;;;;;9.20;100.00;100536.06;5036681;28;20706;-92
2023/01/11 03:55:43;;;;;;;3.50;1.00;;;;;;;9.31;100.00;100546.84;5032645;28;20048;-92
2023/01/11 03:58:09;;;;;;;1.88;1.10;;;;;;;9.23;100.00;100530.22;5035980;28;20031;-90
2023/01/11 04:00:36;;;;;;;2.75;1.10;;;;;;;9.35;100.00;100558.63;5045680;28;20041;-89
2023/01/11 04:03:01;;;;;;;2.47;1.40;;;;;;;9.30;100.00;100550.59;5049995;28;20024;-90
2023/01/11 04:05:27;;;;;;;2.80;1.17;;;;;;;9.34;100.00;100559.69;5045052;28;20296;-90
2023/01/11 04:07:53;;;;;;;1.80;1.45;;;;;;;9.29;100.00;100546.31;5032751;28;20036;-89
2023/01/11 04:10:18;;;;;;;1.47;1.30;;;;;;;9.36;100.00;100554.91;5051563;28;20028;-89
2023/01/11 04:12:48;;;;;;;2.37;1.30;;;;;;;9.32;100.00;100545.78;5041200;28;20033;-89
2023/01/11 04:15:15;;;;;;;1.67;1.45;;;;;;;9.39;100.00;100552.53;5039925;28;20064;-89
2023/01/11 04:17:41;;;;;;;3.35;1.50;;;;;;;9.40;100.00;100569.38;5049659;28;20028;-90
2023/01/11 04:20:11;;;;;;;3.42;1.67;;;;;;;9.44;100.00;100567.00;5045504;28;20032;-89
2023/01/11 04:25:13;;;;;;;6.10;2.50;;;;;;;9.42;100.00;100564.59;5357559;22;20068;-89
2023/01/11 04:27:39;;;;;;;3.60;2.30;;;;;;;9.48;100.00;100565.41;5051634;28;20280;-89
2023/01/11 04:30:05;;;;;;;5.32;2.50;;;;;;;9.48;100.00;100558.22;5066171;28;20423;-89
2023/01/11 04:35:06;;;;;;;3.75;2.45;;;;;;;9.27;100.00;100538.53;5343882;22;20769;-89
2023/01/11 04:37:32;;;;;;;3.40;2.57;;;;;;;9.52;100.00;100571.88;5050455;28;20036;-90
2023/01/11 04:39:57;;;;;;;4.07;2.70;;;;;;;9.46;100.00;100568.38;5052989;28;20037;-88
2023/01/11 04:42:24;;;;;;;7.53;3.00;;;;;;;9.55;100.00;100579.41;5071318;28;20050;-89
2023/01/11 04:44:51;;;;;;;5.47;2.88;;;;;;;9.57;100.00;100581.78;5060559;28;20036;-89
2023/01/11 04:47:17;;;;;;;5.18;3.00;;;;;;;9.61;100.00;100589.03;5061286;28;20024;-90
2023/01/11 04:49:44;;;;;;;5.55;2.72;;;;;;;9.66;100.00;100590.97;5041917;28;20091;-88
2023/01/11 04:52:11;;;;;;;3.63;2.80;;;;;;;9.51;100.00;100579.06;5052573;28;20542;-89
2023/01/11 04:54:36;;;;;;;3.58;2.85;;;;;;;9.68;100.00;100594.16;5054016;28;20029;-90
2023/01/11 04:57:02;;;;;;;4.55;3.30;;;;;;;9.62;100.00;100585.31;5050815;28;20033;-90
2023/01/11 04:59:27;;;;;;;6.33;3.37;;;;;;;9.70;100.00;100603.56;5050669;28;20060;-89
2023/01/11 05:01:53;;;;;;;4.27;2.80;;;;;;;9.50;100.00;100574.78;5053930;28;20048;-89
2023/01/11 05:04:18;;;;;;;5.07;2.67;;;;;;;9.48;100.00;100568.91;5035379;28;20670;-89
2023/01/11 05:06:44;;;;;;;3.73;2.43;;;;;;;9.63;100.00;100597.63;5054683;28;20044;-89
2023/01/11 05:09:14;;;;;;;3.10;2.40;;;;;;;9.59;100.00;100593.06;5053532;28;20532;-89
2023/01/11 05:16:51;;;;;;;3.30;2.30;;;;;;;9.49;100.00;100585.75;5163007;22;20048;-89
2023/01/11 05:19:16;;;;;;;3.10;2.00;;;;;;;9.59;100.00;100606.44;5073253;28;20024;-89
2023/01/11 05:21:42;;;;;;;2.57;1.77;;;;;;;9.59;100.00;100603.75;5055368;28;20090;-89
2023/01/11 05:24:11;;;;;;;2.92;2.00;;;;;;;9.55;100.00;100596.22;5035131;28;20033;-89
2023/01/11 05:26:40;;;;;;;3.23;2.10;;;;;;;9.64;100.00;100623.31;5034745;28;20028;-89
2023/01/11 05:29:12;;;;;;;2.50;2.03;;;;;;;9.67;100.00;100624.69;5046352;28;20304;-89
2023/01/11 05:31:38;;;;;;;5.97;2.50;;;;;;;9.59;100.00;100612.56;5034518;28;20034;-89
2023/01/11 05:34:05;;;;;;;4.20;2.58;;;;;;;9.64;100.00;100626.00;5035019;28;20025;-88
2023/01/11 05:36:32;;;;;;;7.70;3.70;;;;;;;9.64;100.00;100625.19;5048175;28;20048;-88
2023/01/11 05:38:57;;;;;;;9.60;3.92;;;;;;;9.48;100.00;100601.00;5057917;28;20017;-89
2023/01/11 05:41:25;;;;;;;8.77;4.33;;;;;;;9.57;100.00;100617.41;5047115;28;20041;-88
2023/01/11 05:46:38;;;;;;;11.77;5.53;;;;;;;9.57;100.00;100620.06;5057533;28;20130;-88
2023/01/11 05:49:04;;;;;;;12.17;6.07;;;;;;;9.56;100.00;100623.81;5070735;28;20013;-89
2023/01/11 05:51:31;;;;;;;12.23;6.03;;;;;;;9.52;100.00;100615.47;5067093;28;20272;-88
2023/01/11 05:53:57;;;;;;;12.95;6.50;;;;;;;9.53;100.00;100622.44;5048012;28;20030;-88
2023/01/11 05:56:23;;;;;;;15.30;6.50;;;;;;;9.47;100.00;100609.28;5046904;28;20377;-89
2023/01/11 05:58:50;;;;;;;12.45;6.90;;;;;;;9.55;100.00;100624.88;5036635;28;20021;-88
2023/01/11 06:01:17;;;;;;;19.35;6.38;;;;;;;9.54;100.00;100631.28;5036582;28;20037;-88
2023/01/11 06:03:43;;;;;;;14.43;6.87;;;;;;;9.49;100.00;100629.38;5036563;28;20025;-88
2023/01/11 06:06:09;;;;;;;15.40;6.25;;;;;;;9.40;100.00;100617.50;5034881;28;20026;-88
2023/01/11 06:08:34;;;;;;;17.40;4.27;;;;;;;9.33;100.00;100636.44;5040066;28;20358;-88
2023/01/11 06:11:00;;;;;;;15.83;3.70;;;;;;;9.24;100.00;100657.50;5061052;28;20304;-87
2023/01/11 06:13:25;;;;;;;19.43;3.90;;;;;;;9.15;100.00;100652.84;5034485;28;20037;-90
2023/01/11 06:16:05;;;;;;;14.65;4.00;;;;;;;9.05;100.00;100642.84;5049775;28;20033;-91
2023/01/11 06:18:42;;;;;;;20.13;4.20;;;;;;;9.05;100.00;100658.91;5046180;28;20029;-90
2023/01/11 06:21:09;;;;;;;17.90;3.70;;;;;;;9.03;100.00;100674.38;5047143;28;20093;-91
2023/01/11 06:23:42;;;;;;;16.53;3.20;;;;;;;8.98;100.00;100667.13;5044249;28;20319;-90
2023/01/11 06:26:24;;;;;;;18.75;3.35;;;;;;;8.92;100.00;100682.28;5058730;28;20021;-89
2023/01/11 06:28:50;;;;;;;20.10;3.47;;;;;;;8.59;100.00;100648.50;5052273;28;20216;-89
2023/01/11 06:31:18;;;;;;;17.40;2.97;;;;;;;8.72;100.00;100674.03;5044457;28;20056;-90
2023/01/11 06:33:43;;;;;;;15.13;3.33;;;;;;;8.64;100.00;100667.28;5039828;28;20032;-90
2023/01/11 06:36:10;;;;;;;17.50;2.93;;;;;;;8.61;100.00;100686.47;5036925;28;20029;-90
2023/01/11 06:38:37;;;;;;;23.00;2.83;;;;;;;8.45;100.00;100672.88;5052151;28;20043;-90
2023/01/11 06:41:05;;;;;;;21.35;3.03;;;;;;;8.47;100.00;100684.13;5042214;28;20025;-90
2023/01/11 06:43:32;;;;;;;19.80;2.80;;;;;;;8.31;100.00;100675.09;5057699;28;20021;-91
2023/01/11 06:45:58;;;;;;;18.73;2.60;;;;;;;8.55;100.00;100716.81;5043739;28;20335;-91
2023/01/11 06:48:25;;;;;;;23.42;2.58;;;;;;;8.55;100.00;100712.28;5038866;28;20036;-92
2023/01/11 06:50:53;;;;;;;29.15;3.05;;;;;;;8.52;100.00;100703.94;5042452;28;20029;-91
2023/01/11 06:53:18;;;;;;;20.80;3.28;;;;;;;8.42;100.00;100710.75;5033677;28;20053;-90
2023/01/11 06:55:44;;;;;;;23.00;3.03;;;;;;;8.30;100.00;100702.03;5041671;28;20013;-90
2023/01/11 06:58:12;;;;;;;19.20;2.95;;;;;;;8.51;100.00;100747.72;5044667;28;20031;-89
2023/01/11 07:00:37;;;;;;;30.27;2.95;;;;;;;8.33;100.00;100713.03;5008475;28;20496;-92
2023/01/11 07:03:04;;;;;;;25.03;3.10;;;;;;;8.44;100.00;100727.34;5031443;28;20033;-89
2023/01/11 07:05:34;;;;;;;23.40;3.03;;;;;;;8.37;100.00;100725.91;5044624;28;20079;-89
2023/01/11 07:08:00;;;;;;;28.20;2.87;;;;;;;8.43;100.00;100733.72;5033441;28;20025;-91
2023/01/11 07:10:25;;;;;;;30.80;3.80;;;;;;;8.41;100.00;100730.50;5040706;28;20527;-93
2023/01/11 07:12:52;;;;;;;23.80;3.60;;;;;;;8.32;100.00;100719.44;5052626;28;20450;-91
2023/01/11 07:15:18;;;;;;;31.35;3.58;;;;;;;8.08;100.00;100702.78;5062383;28;20048;-90
2023/01/11 07:17:43;;;;;;;36.33;3.63;;;;;;;8.04;100.00;100712.34;5032516;28;20036;-90
2023/01/11 07:20:09;;;;;;;30.00;3.30;;;;;;;8.35;100.00;100768.84;5044765;28;20079;-89
2023/01/11 07:22:35;;;;;;;31.27;3.67;;;;;;;8.31;100.00;100768.53;5048710;28;20025;-90
2023/01/11 07:25:02;;;;;;;30.55;3.45;;;;;;;8.28;100.00;100776.22;5039441;28;20025;-89
2023/01/11 07:27:28;;;;;;;36.38;3.78;;;;;;;8.28;100.00;100774.34;5036583;28;20045;-89
2023/01/11 07:29:53;;;;;;;36.33;3.30;;;;;;;8.23;100.00;100773.47;5050600;28;20614;-89
2023/01/11 07:34:56;;;;;;;33.50;2.67;;;;;;;7.80;100.00;100733.03;5776383;22;20056;-89
2023/01/11 07:37:57;;;;;;;29.63;2.88;;;;;;;8.09;100.00;100780.97;5085724;28;20064;-88
2023/01/11 07:40:22;;;;;;;31.00;2.90;;;;;;;7.85;100.00;100760.59;5053416;28;20024;-89
2023/01/11 07:43:17;;;;;;;25.30;3.08;;;;;;;7.67;100.00;100745.59;5054744;28;20018;-89
2023/01/11 07:55:23;;;;;;;29.38;3.55;;;;;;;7.80;100.00;100834.41;5825642;22;20060;-89
2023/01/11 07:58:05;;;;;;;38.33;3.53;;;;;;;7.50;100.00;100790.91;5029750;28;20037;-90
2023/01/11 08:00:33;;;;;;;24.55;2.80;;;;;;;7.57;100.00;100825.44;5012028;28;20030;-90
2023/01/11 08:02:59;;;;;;;26.45;2.95;;;;;;;7.54;100.00;100820.56;5011760;28;20050;-89
2023/01/11 08:09:25;;;;;;;;;;;;;;;;;;;;;
2023/01/11 08:14:40;;;;;;;25.80;2.63;;;;;;;7.48;100.00;100842.88;5005978;28;20096;-89
2023/01/11 08:17:18;;;;;;;25.13;2.87;;;;;;;7.33;100.00;100835.38;5009441;28;20034;-90
2023/01/11 08:19:43;;;;;;;29.65;3.75;;;;;;;7.12;100.00;100822.41;4994615;28;20037;-89
2023/01/11 08:22:09;;;;;;;28.03;2.90;;;;;;;7.10;100.00;100823.69;5014455;28;20034;-90
2023/01/11 08:24:35;;;;;;;31.92;3.03;;;;;;;7.07;100.00;100832.97;5010120;28;20037;-89
2023/01/11 08:27:04;;;;;;;33.33;2.88;;;;;;;7.18;100.00;100867.84;5015792;28;20029;-89
2023/01/11 08:29:29;;;;;;;37.65;3.08;;;;;;;7.11;100.00;100868.78;5034688;28;20093;-88
2023/01/11 08:31:55;;;;;;;29.13;2.60;;;;;;;7.22;100.00;100892.97;5036325;28;20037;-88
2023/01/11 08:34:21;;;;;;;35.28;3.08;;;;;;;6.89;100.00;100849.09;5035786;28;20252;-88
2023/01/11 08:37:04;;;;;;;36.50;3.42;;;;;;;7.11;100.00;100895.44;5028977;28;20100;-89
2023/01/11 08:39:50;;;;;;;34.35;2.83;;;;;;;6.85;100.00;100872.72;4982178;28;20117;-89
2023/01/11 08:42:15;;;;;;;30.47;2.80;;;;;;;6.76;100.00;100856.25;5002591;28;20109;-88
2023/01/11 08:45:10;;;;;;;37.30;3.75;;;;;;;7.10;100.00;100923.13;5012927;28;20053;-90
2023/01/11 08:47:55;;;;;;;29.60;2.72;;;;;;;6.80;100.00;100885.94;4999328;28;20117;-89
2023/01/11 08:50:21;;;;;;;28.48;2.40;;;;;;;7.06;100.00;100919.28;5013976;28;20033;-95
2023/01/11 08:52:49;;;;;;;32.63;3.13;;;;;;;6.96;100.00;100922.53;5018368;28;20033;-95
2023/01/11 08:55:15;;;;;;;29.48;2.90;;;;;;;6.77;100.00;100905.81;4982240;28;20120;-94
2023/01/11 08:57:47;;;;;;;21.07;2.20;;;;;;;6.82;100.00;100923.81;5019724;28;20041;-96
2023/01/11 09:00:19;;;;;;;36.67;2.73;;;;;;;6.92;100.00;100958.66;5004180;28;20304;-95
2023/01/11 09:02:45;;;;;;;28.42;2.65;;;;;;;6.55;100.00;100899.44;5021516;28;20010;-95
2023/01/11 09:08:33;;;;;;;25.00;2.67;;;;;;;6.59;100.00;100913.91;5001155;28;20093;-95
2023/01/11 09:11:52;;;;;;;23.25;2.63;;;;;;;6.84;100.00;100947.53;5018743;28;20026;-96
2023/01/11 09:14:17;;;;;;;31.27;2.77;;;;;;;6.70;100.00;100937.09;5024273;28;20045;-96
2023/01/11 09:16:43;;;;;;;27.10;2.25;;;;;;;6.49;100.00;100906.47;5017750;28;20053;-96
2023/01/11 09:19:10;;;;;;;27.55;2.03;;;;;;;6.66;100.00;100930.59;5014817;28;20027;-96
2023/01/11 09:21:35;;;;;;;25.97;2.30;;;;;;;6.44;100.00;100901.84;5008203;28;20042;-90
2023/01/11 09:24:41;;;;;;;29.77;2.60;;;;;;;6.72;100.00;100956.31;5011098;28;20323;-88
2023/01/11 09:27:06;;;;;;;25.40;2.53;;;;;;;6.69;100.00;100961.28;5014344;28;20034;-90
2023/01/11 09:29:32;;;;;;;31.57;2.50;;;;;;;6.51;100.00;100942.50;5010743;28;20022;-88
2023/01/11 09:31:58;;;;;;;31.03;2.90;;;;;;;6.53;100.00;100941.47;5012346;28;20508;-91
2023/01/11 09:34:26;;;;;;;31.98;2.40;;;;;;;6.60;100.00;100966.94;5017529;28;20022;-93
2023/01/11 09:36:51;;;;;;;33.77;2.90;;;;;;;6.59;100.00;100980.47;5017470;28;20038;-93
2023/01/11 09:39:19;;;;;;;41.60;2.90;;;;;;;6.38;100.00;100953.34;5013850;28;20293;-93
2023/01/11 09:42:20;;;;;;;33.85;2.60;;;;;;;6.54;100.00;100993.66;5015885;28;20030;-94
2023/01/11 09:44:49;;;;;;;24.15;2.03;;;;;;;6.51;100.00;100995.75;4997914;28;20038;-93
2023/01/11 09:47:29;;;;;;;27.73;2.40;;;;;;;6.44;100.00;100986.22;5003656;28;20469;-93
2023/01/11 09:49:59;;;;;;;26.83;2.40;;;;;;;6.48;100.00;101001.53;5007831;28;20301;-93
2023/01/11 09:52:35;;;;;;;22.35;2.22;;;;;;;6.49;100.00;100995.16;5015014;28;20069;-93
2023/01/11 09:55:01;;;;;;;34.05;2.45;;;;;;;6.45;100.00;100995.84;5013162;28;20800;-93
2023/01/11 09:57:43;;;;;;;17.63;2.50;;;;;;;6.50;100.00;101010.09;5016589;28;20029;-94
2023/01/11 10:00:39;;;;;;;22.35;2.10;;;;;;;6.48;100.00;101006.03;5018132;28;20053;-93
2023/01/11 10:03:44;;;;;;;26.92;2.50;;;;;;;6.49;100.00;101016.44;5017677;28;20461;-93
2023/01/11 10:06:17;;;;;;;28.00;2.03;;;;;;;6.55;100.00;101000.63;4989439;28;20069;-94
2023/01/11 10:09:13;;;;;;;22.50;2.78;;;;;;;6.54;100.00;101004.31;5025402;28;20025;-94
2023/01/11 10:16:51;;;;;;;26.45;3.45;;;;;;;6.74;100.00;101012.84;5446087;22;20092;-94
2023/01/11 10:19:34;;;;;;;30.40;3.20;;;;;;;6.59;100.00;100978.63;5057852;28;20026;-94
2023/01/11 10:22:30;;;;;;;25.93;2.70;;;;;;;6.74;100.00;101004.84;5051238;28;20033;-93
2023/01/11 10:25:09;;;;;;;25.52;2.45;;;;;;;6.82;100.00;101012.50;5023802;28;20117;-92
2023/01/11 10:27:39;;;;;;;24.20;2.65;;;;;;;6.85;100.00;101016.56;5027219;28;20117;-92
2023/01/11 10:33:33;;;;;;;30.85;3.30;;;;;;;6.90;100.00;101003.38;5043150;28;20091;-91
2023/01/11 10:36:29;;;;;;;22.23;3.03;;;;;;;6.99;100.00;101011.03;5000752;28;20026;-92
2023/01/11 10:39:42;;;;;;;33.93;3.70;;;;;;;7.03;100.00;101015.69;5013723;28;20360;-92
2023/01/11 10:42:09;;;;;;;21.48;2.63;;;;;;;7.05;100.00;101007.44;5032855;28;20042;-92
2023/01/11 10:44:43;;;;;;;23.73;3.13;;;;;;;7.05;100.00;101020.75;5009711;28;20022;-92
2023/01/11 10:47:19;;;;;;;27.83;3.08;;;;;;;7.09;100.00;101013.94;5035616;28;20037;-89
2023/01/11 10:49:54;;;;;;;22.70;3.00;;;;;;;7.11;100.00;101015.34;5035335;28;20022;-90
2023/01/11 10:52:29;;;;;;;20.63;2.67;;;;;;;7.12;100.00;101016.16;5051521;28;20025;-91
2023/01/11 10:54:57;;;;;;;23.90;2.53;;;;;;;7.15;100.00;101013.03;5018843;28;20296;-91
2023/01/11 10:57:46;;;;;;;25.20;3.70;;;;;;;7.12;100.00;101005.50;5035015;28;20094;-92
2023/01/11 11:00:46;;;;;;;30.77;2.92;;;;;;;7.22;100.00;101023.56;5032684;28;20033;-93
2023/01/11 11:14:10;;;;;;;25.83;3.20;;;;;;;7.38;100.00;101030.88;5014604;28;20319;-94
2023/01/11 11:17:02;;;;;;;26.63;2.83;;;;;;;7.28;100.00;101004.00;5015244;28;20034;-91
2023/01/11 11:19:32;;;;;;;24.15;2.55;;;;;;;7.51;100.00;101037.84;5015016;28;20029;-93
2023/01/11 11:21:58;;;;;;;25.88;2.88;;;;;;;7.54;100.00;101034.72;5019874;28;20028;-90
2023/01/11 11:24:34;;;;;;;27.25;2.33;;;;;;;7.58;100.00;101027.88;5042008;28;20022;-90
2023/01/11 11:27:13;;;;;;;16.20;2.23;;;;;;;7.54;100.00;101025.91;5015212;28;20078;-90
2023/01/11 11:29:49;;;;;;;22.20;2.67;;;;;;;7.54;100.00;101039.25;5034696;28;20021;-91
2023/01/11 11:32:25;;;;;;;17.08;2.30;;;;;;;7.49;100.00;101025.78;5407603;22;20046;-90
2023/01/11 11:35:46;;;;;;;23.00;3.30;;;;;;;7.49;100.00;101025.78;5012561;28;20082;-90
2023/01/11 11:44:16;;;;;;;19.83;3.10;;;;;;;7.54;100.00;101018.72;5632896;22;20060;-90
2023/01/11 11:47:39;;;;;;;17.77;2.58;;;;;;;7.61;100.00;101029.28;5056688;28;20039;-90
2023/01/11 11:52:43;;;;;;;19.33;2.75;;;;;;;7.63;100.00;101005.03;5477944;22;20106;-93
2023/01/11 11:55:13;;;;;;;22.98;2.92;;;;;;;7.88;100.00;101039.44;5074170;28;20040;-89
2023/01/11 11:57:40;;;;;;;18.70;2.83;;;;;;;7.84;100.00;101031.09;5065813;28;20031;-92
2023/01/11 12:00:21;;;;;;;21.13;2.43;;;;;;;8.01;100.00;101055.22;5079360;28;20319;-91
2023/01/11 12:02:55;;;;;;;23.70;2.70;;;;;;;8.03;100.00;101052.31;5066626;28;20090;-92
2023/01/11 12:05:20;;;;;;;30.58;2.92;;;;;;;8.14;100.00;101050.66;5061459;28;20058;-92
2023/01/11 12:07:49;;;;;;;19.87;2.33;;;;;;;8.22;100.00;101046.81;5058739;28;20029;-93
2023/01/11 12:10:17;;;;;;;24.50;2.55;;;;;;;8.33;100.00;101044.09;5066763;28;20035;-90
2023/01/11 12:12:54;;;;;;;17.58;2.75;;;;;;;8.34;100.00;101037.72;5062143;28;20035;-92
2023/01/11 12:15:24;;;;;;;24.13;3.53;;;;;;;8.38;100.00;101038.06;5056741;28;20510;-91
2023/01/11 12:17:49;;;;;;;17.50;3.05;;;;;;;8.46;100.00;101042.19;5051022;28;20071;-92
2023/01/11 12:20:18;;;;;;;21.77;3.27;;;;;;;8.42;100.00;101044.53;5049814;28;20487;-92
2023/01/11 12:22:43;;;;;;;18.38;2.75;;;;;;;8.38;100.00;101047.94;5059516;28;20021;-92
2023/01/11 12:25:20;;;;;;;22.55;2.65;;;;;;;8.42;100.00;101063.25;5049272;28;20032;-92
2023/01/11 12:27:57;;;;;;;16.37;2.43;;;;;;;8.44;100.00;101053.13;5053006;28;20041;-93
2023/01/11 12:30:34;;;;;;;23.27;3.60;;;;;;;8.48;100.00;101059.66;5051926;28;20032;-89
2023/01/11 12:33:18;;;;;;;31.05;6.05;;;;;;;8.48;100.00;101059.66;5051939;28;20029;-91
2023/01/11 12:36:04;;;;;;;29.83;5.82;;;;;;;8.44;100.00;101063.00;5039540;28;20025;-92
2023/01/11 12:38:38;;;;;;;18.10;2.53;;;;;;;8.43;100.00;101061.38;5052024;28;20037;-91
2023/01/11 12:41:48;;;;;;;18.97;3.10;;;;;;;8.36;100.00;101042.03;5046589;28;20055;-92
2023/01/11 12:44:38;;;;;;;25.57;2.63;;;;;;;8.45;100.00;101064.59;5055509;28;20349;-90
2023/01/11 12:47:41;;;;;;;22.85;3.22;;;;;;;8.52;100.00;101049.31;5050666;28;20543;-91
2023/01/11 12:50:17;;;;;;;19.73;2.13;;;;;;;8.44;100.00;101036.28;5036181;28;20029;-91
2023/01/11 12:53:00;;;;;;;22.58;2.75;;;;;;;8.48;100.00;101061.50;5071736;28;20031;-92
2023/01/11 12:55:42;;;;;;;12.20;2.05;;;;;;;8.48;100.00;101056.16;5050379;28;20622;-92
2023/01/11 12:58:30;;;;;;;13.73;2.83;;;;;;;8.38;100.00;101019.34;5057184;22;20056;-92
2023/01/11 13:01:17;;;;;;;21.83;2.83;;;;;;;8.84;100.00;101062.16;5031898;28;20339;-91
2023/01/11 13:03:42;;;;;;;18.95;2.80;;;;;;;9.05;100.00;101059.84;5028916;28;20393;-92
2023/01/11 13:06:36;;;;;;;15.67;2.30;;;;;;;9.09;100.00;101063.66;5003573;28;20173;-91
2023/01/11 13:09:39;;;;;;;17.00;1.85;;;;;;;9.02;100.00;101071.00;5026536;28;20099;-91
2023/01/11 13:34:13;;;;;;;17.65;2.50;;;;;;;9.23;100.00;101081.00;5982007;22;20045;-91
2023/01/11 13:50:01;;;;;;;17.77;3.03;;;;;;;9.42;100.00;101062.03;5018681;28;20045;-92
2023/01/11 13:52:43;;;;;;;23.23;2.55;;;;;;;9.40;100.00;101053.44;4999499;28;20030;-92
2023/01/11 13:55:36;;;;;;;20.75;2.47;;;;;;;9.61;100.00;101073.28;5391509;22;20045;-92
2023/01/11 13:58:13;;;;;;;21.13;2.53;;;;;;;9.62;100.00;101080.25;5062664;28;20028;-92
2023/01/11 14:00:56;;;;;;;13.63;2.00;;;;;;;9.58;100.00;101068.44;5058661;28;20040;-92
2023/01/11 14:03:26;;;;;;;21.93;3.37;;;;;;;9.53;100.00;101071.03;5162112;22;20311;-92
2023/01/11 14:06:17;;;;;;;16.45;2.50;;;;;;;9.24;100.00;101047.88;5077009;28;20115;-89
2023/01/11 14:09:09;;;;;;;19.50;2.53;;;;;;;9.45;100.00;101071.44;5061397;28;20027;-91
2023/01/11 14:11:48;;;;;;;21.23;2.83;;;;;;;9.47;100.00;101067.47;5069681;28;20085;-92
2023/01/11 14:14:58;;;;;;;16.70;2.10;;;;;;;9.33;100.00;101069.66;5078286;28;20027;-93
2023/01/11 14:17:45;;;;;;;14.93;1.97;;;;;;;9.04;100.00;101071.59;5093413;28;20040;-92
2023/01/11 14:20:28;;;;;;;22.37;3.17;;;;;;;8.77;100.00;101062.31;5094744;28;20282;-91
2023/01/11 14:22:54;;;;;;;24.90;3.03;;;;;;;8.67;100.00;101072.00;5100076;28;20017;-91
2023/01/11 14:25:34;;;;;;;15.67;2.30;;;;;;;8.53;100.00;101064.28;5098798;28;20064;-91
2023/01/11 14:28:30;;;;;;;12.50;2.50;;;;;;;8.57;100.00;101065.44;5097370;28;20032;-91